createdAt,value
2022-09-27T00:00:49.060Z,10.82
2022-09-27T00:03:06.073Z,10.83
2022-09-27T00:05:23.034Z,10.82
2022-09-27T00:07:40.121Z,10.79
2022-09-27T00:09:56.995Z,10.76
2022-09-27T00:12:13.959Z,10.76
2022-09-27T00:14:31.688Z,10.76
2022-09-27T00:16:48.871Z,10.75
2022-09-27T00:19:07.880Z,10.76
2022-09-27T00:21:24.778Z,10.78
2022-09-27T00:23:42.112Z,10.80
2022-09-27T00:25:59.151Z,10.84
2022-09-27T00:28:16.412Z,10.80
2022-09-27T00:30:33.568Z,10.78
2022-09-27T00:32:50.874Z,10.77
2022-09-27T00:35:07.986Z,10.79
2022-09-27T00:37:25.319Z,10.81
2022-09-27T00:39:42.591Z,10.86
2022-09-27T00:41:59.544Z,10.87
2022-09-27T00:44:17.702Z,10.86
2022-09-27T00:46:34.850Z,10.86
2022-09-27T00:48:51.813Z,10.84
2022-09-27T00:51:08.857Z,10.85
2022-09-27T00:53:28.300Z,10.92
2022-09-27T00:55:45.533Z,10.87
2022-09-27T00:58:02.845Z,10.85
2022-09-27T01:00:19.851Z,10.84
2022-09-27T01:02:37.347Z,10.83
2022-09-27T01:04:54.381Z,10.93
2022-09-27T01:07:11.417Z,10.85
2022-09-27T01:09:28.744Z,10.87
2022-09-27T01:11:45.816Z,10.85
2022-09-27T01:14:03.043Z,10.82
2022-09-27T01:16:20.544Z,10.77
2022-09-27T01:18:37.880Z,10.81
2022-09-27T01:20:55.218Z,10.80
2022-09-27T01:23:12.477Z,10.81
2022-09-27T01:28:03.929Z,10.82
2022-09-27T01:30:21.893Z,10.84
2022-09-27T01:32:38.937Z,10.82
2022-09-27T01:34:55.950Z,10.81
2022-09-27T01:37:15.305Z,10.80
2022-09-27T01:39:32.621Z,10.78
2022-09-27T01:41:49.855Z,10.80
2022-09-27T01:44:07.187Z,10.78
2022-09-27T01:46:25.152Z,10.75
2022-09-27T01:48:42.452Z,10.73
2022-09-27T01:50:59.616Z,10.74
2022-09-27T01:53:16.844Z,10.74
2022-09-27T01:55:34.041Z,10.70
2022-09-27T01:57:52.265Z,10.69
2022-09-27T02:00:10.470Z,10.69
2022-09-27T02:02:29.743Z,10.68
2022-09-27T02:04:47.081Z,10.64
2022-09-27T02:07:04.040Z,10.66
2022-09-27T02:09:21.589Z,10.67
2022-09-27T02:11:38.631Z,10.62
2022-09-27T02:13:55.533Z,10.64
2022-09-27T02:16:12.585Z,10.63
2022-09-27T02:18:29.947Z,10.64
2022-09-27T02:20:47.900Z,10.65
2022-09-27T02:23:04.921Z,10.62
2022-09-27T02:25:21.937Z,10.57
2022-09-27T02:27:42.610Z,10.54
2022-09-27T02:29:59.774Z,10.53
2022-09-27T02:32:18.067Z,10.53
2022-09-27T02:34:37.580Z,10.54
2022-09-27T02:36:57.503Z,10.50
2022-09-27T02:39:14.830Z,10.49
2022-09-27T02:41:32.626Z,10.49
2022-09-27T02:43:49.999Z,10.46
2022-09-27T02:46:07.188Z,10.44
2022-09-27T02:48:24.267Z,10.39
2022-09-27T02:50:41.512Z,10.42
2022-09-27T02:52:58.811Z,10.41
2022-09-27T02:55:16.878Z,10.34
2022-09-27T02:57:36.008Z,10.31
2022-09-27T02:59:52.924Z,10.33
2022-09-27T03:02:13.546Z,10.29
2022-09-27T03:04:31.325Z,10.27
2022-09-27T03:06:48.250Z,10.28
2022-09-27T03:09:05.311Z,10.26
2022-09-27T03:11:22.593Z,10.27
2022-09-27T03:13:55.895Z,10.25
2022-09-27T03:16:19.040Z,10.26
2022-09-27T03:18:38.067Z,10.22
2022-09-27T03:20:54.996Z,10.19
2022-09-27T03:23:12.434Z,10.21
2022-09-27T03:25:29.355Z,10.24
2022-09-27T03:27:46.721Z,10.29
2022-09-27T03:30:05.333Z,10.24
2022-09-27T03:32:22.579Z,10.27
2022-09-27T03:34:39.864Z,10.27
2022-09-27T03:36:58.439Z,10.35
2022-09-27T03:39:15.779Z,10.32
2022-09-27T03:41:33.904Z,10.29
2022-09-27T03:43:51.509Z,10.25
2022-09-27T03:46:08.472Z,10.20
2022-09-27T03:48:28.112Z,10.13
2022-09-27T03:50:45.680Z,10.12
2022-09-27T03:53:02.817Z,10.12
2022-09-27T03:55:20.160Z,10.03
2022-09-27T03:57:37.227Z,10.02
2022-09-27T03:59:54.206Z,10.02
2022-09-27T04:02:11.571Z,10.01
2022-09-27T04:04:29.967Z,9.98
2022-09-27T04:06:46.909Z,9.98
2022-09-27T04:09:04.269Z,9.98
2022-09-27T04:11:21.296Z,10.00
2022-09-27T04:13:38.309Z,10.03
2022-09-27T04:15:55.361Z,10.07
2022-09-27T04:18:12.517Z,10.06
2022-09-27T04:20:29.478Z,10.05
2022-09-27T04:22:46.731Z,10.07
2022-09-27T04:25:04.719Z,10.05
2022-09-27T04:27:22.454Z,10.07
2022-09-27T04:29:40.358Z,10.04
2022-09-27T04:31:57.345Z,10.07
2022-09-27T04:34:14.585Z,10.04
2022-09-27T04:36:31.564Z,10.06
2022-09-27T04:38:49.009Z,10.06
2022-09-27T04:41:05.984Z,10.07
2022-09-27T04:43:24.024Z,10.09
2022-09-27T04:45:41.390Z,10.09
2022-09-27T04:47:58.396Z,10.04
2022-09-27T04:50:16.614Z,10.05
2022-09-27T04:52:34.630Z,10.07
2022-09-27T04:54:51.513Z,10.05
2022-09-27T04:57:08.614Z,10.05
2022-09-27T04:59:25.853Z,10.02
2022-09-27T05:01:43.769Z,10.00
2022-09-27T05:04:01.127Z,9.99
2022-09-27T05:06:18.074Z,10.03
2022-09-27T05:08:35.078Z,9.98
2022-09-27T05:10:53.532Z,9.96
2022-09-27T05:13:10.528Z,9.93
2022-09-27T05:15:28.500Z,9.91
2022-09-27T05:17:45.554Z,9.92
2022-09-27T05:20:02.485Z,9.89
2022-09-27T05:22:19.533Z,9.91
2022-09-27T05:24:36.801Z,9.87
2022-09-27T05:26:55.662Z,9.86
2022-09-27T05:29:12.682Z,9.85
2022-09-27T05:31:29.891Z,9.82
2022-09-27T05:33:46.854Z,9.84
2022-09-27T05:36:04.108Z,9.82
2022-09-27T05:38:21.282Z,9.79
2022-09-27T05:40:42.006Z,9.75
2022-09-27T05:42:59.649Z,9.78
2022-09-27T05:45:16.865Z,9.81
2022-09-27T05:47:35.844Z,9.77
2022-09-27T05:49:54.089Z,9.78
2022-09-27T05:52:15.080Z,9.79
2022-09-27T05:54:35.204Z,9.77
2022-09-27T05:56:53.174Z,9.80
2022-09-27T05:59:12.617Z,9.82
2022-09-27T06:01:29.962Z,9.80
2022-09-27T06:03:47.223Z,9.78
2022-09-27T06:06:04.486Z,9.81
2022-09-27T06:08:21.327Z,9.78
2022-09-27T06:10:38.327Z,9.82
2022-09-27T06:12:56.800Z,9.84
2022-09-27T06:15:14.187Z,9.84
2022-09-27T06:17:31.793Z,9.87
2022-09-27T06:19:49.587Z,9.83
2022-09-27T06:22:06.870Z,9.95
2022-09-27T06:24:25.083Z,9.98
2022-09-27T06:26:42.079Z,9.93
2022-09-27T06:28:59.034Z,9.92
2022-09-27T06:31:16.336Z,10.00
2022-09-27T06:33:33.606Z,9.95
2022-09-27T06:35:50.651Z,9.97
2022-09-27T06:38:07.670Z,9.98
2022-09-27T06:40:25.921Z,9.98
2022-09-27T06:42:43.278Z,9.97
2022-09-27T06:45:00.265Z,9.97
2022-09-27T06:47:17.282Z,9.99
2022-09-27T06:49:35.508Z,10.04
2022-09-27T06:51:52.488Z,10.08
2022-09-27T06:54:09.508Z,10.05
2022-09-27T06:56:26.511Z,10.06
2022-09-27T06:58:44.884Z,10.12
2022-09-27T07:01:02.383Z,10.13
2022-09-27T07:03:19.416Z,10.18
2022-09-27T07:05:36.398Z,10.21
2022-09-27T07:07:53.391Z,10.33
2022-09-27T07:10:10.575Z,10.33
2022-09-27T07:12:27.861Z,10.43
2022-09-27T07:14:44.853Z,10.53
2022-09-27T07:17:02.812Z,10.62
2022-09-27T07:19:20.450Z,10.81
2022-09-27T07:21:37.740Z,10.96
2022-09-27T07:23:54.904Z,11.13
2022-09-27T07:26:11.810Z,11.28
2022-09-27T07:28:29.144Z,11.41
2022-09-27T07:30:46.158Z,11.58
2022-09-27T07:33:03.186Z,11.75
2022-09-27T07:35:20.404Z,11.87
2022-09-27T07:37:38.447Z,11.84
2022-09-27T07:39:56.708Z,11.92
2022-09-27T07:42:14.660Z,11.95
2022-09-27T07:44:31.632Z,11.79
2022-09-27T07:46:48.663Z,11.77
2022-09-27T07:49:05.575Z,11.85
2022-09-27T07:51:22.524Z,11.74
2022-09-27T07:53:39.747Z,11.70
2022-09-27T07:55:56.989Z,11.73
2022-09-27T07:58:15.017Z,11.68
2022-09-27T08:00:31.886Z,11.72
2022-09-27T08:02:49.086Z,11.68
2022-09-27T08:05:07.258Z,11.66
2022-09-27T08:07:24.877Z,11.56
2022-09-27T08:09:42.184Z,11.57
2022-09-27T08:11:59.430Z,11.59
2022-09-27T08:14:16.627Z,11.63
2022-09-27T08:16:33.954Z,11.66
2022-09-27T08:18:51.073Z,11.74
2022-09-27T08:21:08.416Z,11.55
2022-09-27T08:23:25.722Z,11.54
2022-09-27T08:25:42.800Z,11.47
2022-09-27T08:27:59.966Z,11.45
2022-09-27T08:30:17.166Z,11.44
2022-09-27T08:32:34.214Z,11.59
2022-09-27T08:34:51.496Z,11.68
2022-09-27T08:37:08.878Z,11.81
2022-09-27T08:39:25.918Z,11.88
2022-09-27T08:41:42.967Z,12.01
2022-09-27T08:44:00.062Z,11.93
2022-09-27T08:46:17.886Z,11.91
2022-09-27T08:48:36.206Z,11.94
2022-09-27T08:50:53.500Z,12.15
2022-09-27T08:53:11.148Z,12.03
2022-09-27T08:55:28.252Z,11.97
2022-09-27T08:57:45.252Z,12.04
2022-09-27T09:00:02.450Z,12.10
2022-09-27T09:02:19.557Z,12.06
2022-09-27T09:04:36.761Z,12.04
2022-09-27T09:06:54.004Z,12.18
2022-09-27T09:09:12.026Z,12.30
2022-09-27T09:11:29.060Z,12.28
2022-09-27T09:13:46.375Z,12.36
2022-09-27T09:16:04.260Z,12.38
2022-09-27T09:18:21.282Z,12.34
2022-09-27T09:20:38.903Z,12.25
2022-09-27T09:22:56.148Z,12.29
2022-09-27T09:25:14.430Z,12.26
2022-09-27T09:27:31.768Z,12.15
2022-09-27T09:29:48.811Z,12.08
2022-09-27T09:32:05.868Z,12.18
2022-09-27T09:34:23.202Z,12.36
2022-09-27T09:36:40.540Z,12.36
2022-09-27T09:38:57.776Z,12.45
2022-09-27T09:41:16.179Z,12.50
2022-09-27T09:43:34.513Z,12.44
2022-09-27T09:45:52.143Z,12.42
2022-09-27T09:48:09.482Z,12.37
2022-09-27T09:50:26.538Z,12.41
2022-09-27T09:52:43.491Z,12.46
2022-09-27T09:55:00.413Z,12.48
2022-09-27T09:57:17.450Z,12.59
2022-09-27T09:59:34.702Z,12.51
2022-09-27T10:01:51.817Z,12.67
2022-09-27T10:04:08.887Z,12.59
2022-09-27T10:06:26.000Z,12.56
2022-09-27T10:08:43.256Z,12.53
2022-09-27T10:11:00.847Z,12.54
2022-09-27T10:13:17.876Z,12.62
2022-09-27T10:15:35.123Z,12.60
2022-09-27T10:17:52.503Z,12.53
2022-09-27T10:20:09.827Z,12.71
2022-09-27T10:22:27.078Z,12.70
2022-09-27T10:24:44.344Z,12.85
2022-09-27T10:27:01.401Z,12.93
2022-09-27T10:29:18.714Z,13.02
2022-09-27T10:31:36.002Z,13.02
2022-09-27T10:33:54.257Z,13.05
2022-09-27T10:36:11.433Z,13.16
2022-09-27T10:38:28.661Z,13.24
2022-09-27T10:40:46.236Z,13.33
2022-09-27T10:43:03.486Z,13.43
2022-09-27T10:45:20.755Z,13.52
2022-09-27T10:47:37.751Z,13.72
2022-09-27T10:49:54.766Z,13.80
2022-09-27T10:52:13.592Z,13.81
2022-09-27T10:54:30.878Z,13.81
2022-09-27T10:56:48.239Z,13.89
2022-09-27T10:59:05.244Z,13.77
2022-09-27T11:01:22.627Z,13.80
2022-09-27T11:03:39.954Z,13.81
2022-09-27T11:05:57.179Z,13.87
2022-09-27T11:08:14.458Z,13.73
2022-09-27T11:10:36.891Z,13.68
2022-09-27T11:12:54.603Z,13.49
2022-09-27T11:15:12.087Z,13.22
2022-09-27T11:17:29.060Z,12.98
2022-09-27T11:19:45.994Z,12.60
2022-09-27T11:22:03.222Z,12.31
2022-09-27T11:24:20.157Z,12.06
2022-09-27T11:26:37.723Z,11.96
2022-09-27T11:28:55.000Z,11.90
2022-09-27T11:31:13.644Z,12.05
2022-09-27T11:33:33.375Z,12.04
2022-09-27T11:35:50.330Z,12.10
2022-09-27T11:38:07.218Z,12.11
2022-09-27T11:40:24.387Z,12.20
2022-09-27T11:42:41.796Z,12.29
2022-09-27T11:45:26.788Z,12.29
2022-09-27T11:47:36.988Z,12.50
2022-09-27T11:49:54.305Z,12.59
2022-09-27T11:52:11.757Z,12.76
2022-09-27T11:54:29.679Z,12.93
2022-09-27T11:56:47.788Z,13.33
2022-09-27T11:59:04.669Z,13.76
2022-09-27T12:01:22.541Z,14.11
2022-09-27T12:03:39.860Z,14.38
2022-09-27T12:05:59.870Z,14.64
2022-09-27T12:08:18.421Z,15.17
2022-09-27T12:10:38.119Z,15.40
2022-09-27T12:12:55.117Z,15.46
2022-09-27T12:15:12.178Z,15.69
2022-09-27T12:17:30.220Z,15.42
2022-09-27T12:19:47.312Z,15.38
2022-09-27T12:22:04.439Z,15.14
2022-09-27T12:24:21.728Z,14.84
2022-09-27T12:26:40.897Z,14.68
2022-09-27T12:28:57.883Z,14.39
2022-09-27T12:31:28.937Z,14.62
2022-09-27T12:33:47.050Z,14.99
2022-09-27T12:36:04.318Z,15.16
2022-09-27T12:38:21.435Z,15.12
2022-09-27T12:40:39.941Z,15.05
2022-09-27T12:42:57.610Z,15.05
2022-09-27T12:45:14.533Z,14.81
2022-09-27T12:47:32.643Z,14.60
2022-09-27T12:49:49.620Z,14.42
2022-09-27T12:52:07.034Z,14.37
2022-09-27T12:54:25.475Z,14.11
2022-09-27T12:56:42.574Z,13.92
2022-09-27T12:59:00.889Z,13.78
2022-09-27T13:01:19.238Z,13.65
2022-09-27T13:03:43.136Z,13.40
2022-09-27T13:06:02.648Z,13.34
2022-09-27T13:08:19.646Z,13.36
2022-09-27T13:10:38.012Z,13.23
2022-09-27T13:12:56.235Z,13.06
2022-09-27T13:15:13.328Z,12.97
2022-09-27T13:17:30.699Z,12.97
2022-09-27T13:19:48.062Z,12.65
2022-09-27T13:22:05.852Z,12.62
2022-09-27T13:24:23.336Z,12.55
2022-09-27T13:26:40.352Z,12.42
2022-09-27T13:28:57.248Z,12.44
2022-09-27T13:31:16.407Z,12.42
2022-09-27T13:33:33.527Z,12.40
2022-09-27T13:35:51.613Z,12.30
2022-09-27T13:38:08.878Z,12.13
2022-09-27T13:40:26.284Z,12.09
2022-09-27T13:42:43.645Z,12.09
2022-09-27T13:45:04.192Z,12.00
2022-09-27T13:47:21.213Z,11.91
2022-09-27T13:49:38.826Z,11.87
2022-09-27T13:51:55.748Z,11.78
2022-09-27T13:54:12.852Z,11.69
2022-09-27T13:56:30.457Z,11.69
2022-09-27T13:58:48.499Z,11.63
2022-09-27T14:01:05.797Z,11.75
2022-09-27T14:03:24.200Z,11.81
2022-09-27T14:05:41.448Z,11.90
2022-09-27T14:07:58.748Z,12.00
2022-09-27T14:10:15.728Z,12.10
2022-09-27T14:12:33.600Z,12.02
2022-09-27T14:14:50.637Z,12.06
2022-09-27T14:17:10.150Z,12.10
2022-09-27T14:19:27.560Z,12.23
2022-09-27T14:21:44.852Z,12.41
2022-09-27T14:24:02.091Z,12.48
2022-09-27T14:26:19.086Z,12.57
2022-09-27T14:28:37.496Z,12.61
2022-09-27T14:30:55.638Z,12.64
2022-09-27T14:33:12.700Z,13.05
2022-09-27T14:35:30.065Z,13.38
2022-09-27T14:37:48.048Z,13.93
2022-09-27T14:40:05.092Z,14.27
2022-09-27T14:42:22.197Z,14.38
2022-09-27T14:44:39.436Z,14.39
2022-09-27T14:46:56.455Z,14.23
2022-09-27T14:49:13.470Z,14.09
2022-09-27T14:51:30.458Z,13.94
2022-09-27T14:53:48.417Z,13.64
2022-09-27T14:56:05.444Z,13.60
2022-09-27T14:58:45.597Z,13.39
2022-09-27T15:00:59.400Z,13.57
2022-09-27T15:03:17.830Z,13.73
2022-09-27T15:05:35.415Z,13.67
2022-09-27T15:07:52.413Z,13.75
2022-09-27T15:10:09.665Z,13.71
2022-09-27T15:12:26.688Z,13.69
2022-09-27T15:14:43.788Z,13.80
2022-09-27T15:17:00.777Z,13.61
2022-09-27T15:19:17.882Z,13.69
2022-09-27T15:21:35.434Z,13.66
2022-09-27T15:23:52.840Z,13.65
2022-09-27T15:26:10.122Z,13.44
2022-09-27T15:28:27.256Z,13.18
2022-09-27T15:30:44.535Z,13.01
2022-09-27T15:33:01.735Z,12.84
2022-09-27T15:35:19.745Z,12.61
2022-09-27T15:37:36.740Z,12.46
2022-09-27T15:39:53.752Z,12.23
2022-09-27T15:42:10.811Z,12.08
2022-09-27T15:44:29.182Z,11.88
2022-09-27T15:46:48.903Z,11.67
2022-09-27T15:49:06.131Z,11.60
2022-09-27T15:51:23.288Z,11.47
2022-09-27T15:53:40.783Z,11.40
2022-09-27T15:55:58.865Z,11.35
2022-09-27T15:58:15.861Z,11.23
2022-09-27T16:00:32.888Z,11.27
2022-09-27T16:02:50.159Z,11.36
2022-09-27T16:05:07.103Z,11.76
2022-09-27T16:07:24.443Z,12.11
2022-09-27T16:09:41.443Z,12.56
2022-09-27T16:11:58.672Z,12.62
2022-09-27T16:14:15.584Z,12.50
2022-09-27T16:16:33.631Z,12.35
2022-09-27T16:18:50.860Z,12.01
2022-09-27T16:21:08.112Z,11.82
2022-09-27T16:23:25.167Z,11.65
2022-09-27T16:25:42.123Z,11.54
2022-09-27T16:27:59.316Z,11.47
2022-09-27T16:30:17.296Z,11.32
2022-09-27T16:32:34.387Z,11.15
2022-09-27T16:34:51.559Z,11.06
2022-09-27T16:37:08.760Z,10.96
2022-09-27T16:39:26.128Z,10.90
2022-09-27T16:41:43.047Z,10.76
2022-09-27T16:43:59.945Z,10.68
2022-09-27T16:46:17.670Z,10.62
2022-09-27T16:48:34.935Z,10.51
2022-09-27T16:50:52.286Z,10.52
2022-09-27T16:53:10.449Z,10.42
2022-09-27T16:55:27.689Z,10.35
2022-09-27T16:57:45.674Z,10.27
2022-09-27T17:00:02.650Z,10.13
2022-09-27T17:02:20.731Z,9.99
2022-09-27T17:04:37.810Z,9.95
2022-09-27T17:06:54.884Z,9.92
2022-09-27T17:09:11.886Z,9.88
2022-09-27T17:11:28.862Z,9.83
2022-09-27T17:13:45.801Z,9.78
2022-09-27T17:16:02.902Z,9.73
2022-09-27T17:18:20.191Z,9.62
2022-09-27T17:20:38.161Z,9.57
2022-09-27T17:22:55.219Z,9.48
2022-09-27T17:25:12.396Z,9.39
2022-09-27T17:27:29.431Z,9.35
2022-09-27T17:29:46.387Z,9.32
2022-09-27T17:32:03.276Z,9.26
2022-09-27T17:34:20.290Z,9.18
2022-09-27T17:36:38.274Z,9.12
2022-09-27T17:38:55.451Z,9.06
2022-09-27T17:41:12.857Z,9.02
2022-09-27T17:43:29.784Z,8.96
2022-09-27T17:45:46.831Z,8.88
2022-09-27T17:48:07.834Z,8.80
2022-09-27T17:50:27.856Z,8.73
2022-09-27T17:52:44.932Z,8.70
2022-09-27T17:55:07.249Z,8.70
2022-09-27T17:57:24.508Z,8.65
2022-09-27T17:59:41.843Z,8.60
2022-09-27T18:01:59.136Z,8.56
2022-09-27T18:04:16.514Z,8.52
2022-09-27T18:06:33.543Z,8.51
2022-09-27T18:08:50.579Z,8.45
2022-09-27T18:11:07.936Z,8.38
2022-09-27T18:13:25.104Z,8.31
2022-09-27T18:15:42.121Z,8.32
2022-09-27T18:18:02.422Z,8.28
2022-09-27T18:20:19.483Z,8.22
2022-09-27T18:22:36.695Z,8.17
2022-09-27T18:24:53.625Z,8.14
2022-09-27T18:27:10.820Z,8.13
2022-09-27T18:29:28.864Z,8.13
2022-09-27T18:31:48.774Z,8.07
2022-09-27T18:34:06.452Z,8.01
2022-09-27T18:36:23.545Z,7.91
2022-09-27T18:38:40.593Z,7.90
2022-09-27T18:40:57.698Z,7.90
2022-09-27T18:43:14.712Z,7.87
2022-09-27T18:45:32.557Z,7.85
2022-09-27T18:47:49.830Z,7.79
2022-09-27T18:50:07.131Z,7.74
2022-09-27T18:52:25.057Z,7.71
2022-09-27T18:54:42.099Z,7.69
2022-09-27T18:56:59.053Z,7.67
2022-09-27T18:59:16.214Z,7.58
2022-09-27T19:01:34.343Z,7.55
2022-09-27T19:03:51.312Z,7.52
2022-09-27T19:06:08.570Z,7.51
2022-09-27T19:08:25.827Z,7.47
2022-09-27T19:10:42.849Z,7.42
2022-09-27T19:13:01.056Z,7.39
2022-09-27T19:15:25.891Z,7.35
2022-09-27T19:17:42.957Z,7.33
2022-09-27T19:20:00.301Z,7.31
2022-09-27T19:22:17.288Z,7.32
2022-09-27T19:24:35.175Z,7.26
2022-09-27T19:26:52.491Z,7.25
2022-09-27T19:29:09.527Z,7.17
2022-09-27T19:31:27.039Z,7.16
2022-09-27T19:33:44.027Z,7.11
2022-09-27T19:36:01.066Z,7.18
2022-09-27T19:38:18.579Z,7.12
2022-09-27T19:40:35.874Z,7.05
2022-09-27T19:42:52.877Z,7.03
2022-09-27T19:45:11.679Z,6.99
2022-09-27T19:47:31.148Z,6.97
2022-09-27T19:49:48.175Z,6.95
2022-09-27T19:52:06.388Z,6.90
2022-09-27T19:54:23.431Z,6.86
2022-09-27T19:56:40.914Z,6.84
2022-09-27T19:59:01.675Z,6.80
2022-09-27T20:01:22.272Z,6.79
2022-09-27T20:03:39.490Z,6.80
2022-09-27T20:05:56.705Z,6.81
2022-09-27T20:08:14.936Z,6.82
2022-09-27T20:10:33.194Z,6.85
2022-09-27T20:12:50.408Z,6.88
2022-09-27T20:15:07.474Z,6.93
2022-09-27T20:17:24.487Z,6.99
2022-09-27T20:19:41.448Z,7.00
2022-09-27T20:21:58.447Z,7.00
2022-09-27T20:24:15.749Z,6.96
2022-09-27T20:26:34.039Z,6.95
2022-09-27T20:28:51.009Z,6.98
2022-09-27T20:31:08.340Z,7.04
2022-09-27T20:33:25.344Z,7.04
2022-09-27T20:35:43.370Z,7.12
2022-09-27T20:38:01.214Z,7.11
2022-09-27T20:40:18.165Z,7.11
2022-09-27T20:42:35.136Z,7.15
2022-09-27T20:44:54.514Z,7.21
2022-09-27T20:47:11.614Z,7.17
2022-09-27T20:49:28.592Z,7.16
2022-09-27T20:51:48.094Z,7.11
2022-09-27T20:54:06.353Z,7.04
2022-09-27T20:56:23.288Z,7.06
2022-09-27T20:58:48.549Z,7.07
2022-09-27T21:01:05.913Z,7.09
2022-09-27T21:03:22.903Z,7.10
2022-09-27T21:05:39.919Z,7.13
2022-09-27T21:07:57.871Z,7.16
2022-09-27T21:10:14.827Z,7.10
2022-09-27T21:12:31.949Z,7.15
2022-09-27T21:14:49.857Z,7.15
2022-09-27T21:17:07.101Z,7.11
2022-09-27T21:19:25.101Z,7.17
2022-09-27T21:21:42.084Z,7.26
2022-09-27T21:24:00.290Z,7.34
2022-09-27T21:26:17.306Z,7.39
2022-09-27T21:28:34.292Z,7.35
2022-09-27T21:30:52.168Z,7.40
2022-09-27T21:33:09.162Z,7.49
2022-09-27T21:35:26.218Z,7.48
2022-09-27T21:37:44.013Z,7.46
2022-09-27T21:40:01.010Z,7.46
2022-09-27T21:42:18.323Z,7.44
2022-09-27T21:44:35.183Z,7.43
2022-09-27T21:46:52.512Z,7.48
2022-09-27T21:49:09.608Z,7.46
2022-09-27T21:51:26.749Z,7.45
2022-09-27T21:53:44.661Z,7.50
2022-09-27T21:56:02.618Z,7.58
2022-09-27T21:58:19.579Z,7.67
2022-09-27T22:00:36.944Z,7.76
2022-09-27T22:02:54.988Z,7.85
2022-09-27T22:05:13.395Z,7.91
2022-09-27T22:07:30.704Z,7.95
2022-09-27T22:09:47.656Z,7.98
2022-09-27T22:12:04.533Z,8.03
2022-09-27T22:14:22.447Z,8.07
2022-09-27T22:16:39.680Z,8.10
2022-09-27T22:18:56.653Z,8.15
2022-09-27T22:21:14.963Z,8.20
2022-09-27T22:23:32.273Z,8.26
2022-09-27T22:25:50.238Z,8.28
2022-09-27T22:28:07.145Z,8.29
2022-09-27T22:30:24.329Z,8.32
2022-09-27T22:32:41.249Z,8.33
2022-09-27T22:34:58.230Z,8.36
2022-09-27T22:37:16.368Z,8.37
2022-09-27T22:39:33.574Z,8.42
2022-09-27T22:41:50.578Z,8.39
2022-09-27T22:44:07.533Z,8.38
2022-09-27T22:46:24.571Z,8.41
2022-09-27T22:48:41.559Z,8.39
2022-09-27T22:50:59.970Z,8.41
2022-09-27T22:53:17.231Z,8.41
2022-09-27T22:55:34.201Z,8.42
2022-09-27T22:57:51.375Z,8.45
2022-09-27T23:00:08.557Z,8.46
2022-09-27T23:02:25.848Z,8.47
2022-09-27T23:04:43.821Z,8.54
2022-09-27T23:07:01.043Z,8.55
2022-09-27T23:09:18.211Z,8.56
2022-09-27T23:11:35.414Z,8.62
2022-09-27T23:13:52.430Z,8.58
2022-09-27T23:16:09.541Z,8.56
2022-09-27T23:18:28.231Z,8.62
2022-09-27T23:20:45.235Z,8.54
2022-09-27T23:23:02.419Z,8.51
2022-09-27T23:25:20.727Z,8.51
2022-09-27T23:27:38.640Z,8.51
2022-09-27T23:29:55.609Z,8.52
2022-09-27T23:32:12.657Z,8.55
2022-09-27T23:34:29.979Z,8.54
2022-09-27T23:36:48.961Z,8.52
2022-09-27T23:39:05.978Z,8.50
2022-09-27T23:41:23.868Z,8.49
2022-09-27T23:43:40.943Z,8.50
2022-09-27T23:45:57.958Z,8.49
2022-09-27T23:48:16.243Z,8.51
2022-09-27T23:50:33.563Z,8.49
2022-09-27T23:52:51.591Z,8.48
2022-09-27T23:55:08.910Z,8.50
2022-09-27T23:57:27.109Z,8.52
2022-09-27T23:59:44.422Z,8.54
